createdAt,value
2017-09-28T00:00:39.701Z,113.40
2017-09-28T00:03:14.301Z,88.03
2017-09-28T00:05:48.044Z,63.90
2017-09-28T00:08:21.825Z,106.80
2017-09-28T00:10:55.630Z,65.70
2017-09-28T00:13:30.057Z,62.73
2017-09-28T00:16:04.874Z,61.83
2017-09-28T00:18:39.356Z,114.03
2017-09-28T00:21:13.993Z,80.60
2017-09-28T00:23:47.867Z,52.60
2017-09-28T00:26:22.444Z,93.93
2017-09-28T00:28:56.155Z,83.10
2017-09-28T00:31:29.858Z,81.17
2017-09-28T00:34:04.379Z,54.57
2017-09-28T00:36:38.089Z,64.40
2017-09-28T00:39:12.719Z,66.90
2017-09-28T00:41:47.312Z,62.93
2017-09-28T00:44:21.056Z,86.87
2017-09-28T00:46:54.825Z,56.13
2017-09-28T00:49:28.737Z,60.13
2017-09-28T00:52:03.385Z,51.47
2017-09-28T00:54:37.129Z,74.07
2017-09-28T00:57:10.860Z,72.73
2017-09-28T00:59:44.699Z,85.03
2017-09-28T01:02:19.824Z,59.20
2017-09-28T01:04:53.542Z,77.73
2017-09-28T01:07:27.350Z,59.80
2017-09-28T01:10:01.985Z,59.93
2017-09-28T01:12:35.798Z,58.87
2017-09-28T01:15:09.592Z,68.23
2017-09-28T01:17:43.376Z,90.97
2017-09-28T01:20:17.332Z,68.87
2017-09-28T01:22:51.138Z,93.40
2017-09-28T01:25:26.611Z,89.77
2017-09-28T01:28:00.339Z,75.40
2017-09-28T01:30:34.173Z,77.43
2017-09-28T01:33:09.174Z,80.53
2017-09-28T01:35:43.633Z,63.53
2017-09-28T01:38:17.537Z,64.40
2017-09-28T01:40:51.282Z,60.77
2017-09-28T01:43:25.081Z,58.57
2017-09-28T01:45:58.797Z,75.33
2017-09-28T01:48:32.687Z,57.80
2017-09-28T01:51:06.453Z,52.17
2017-09-28T01:53:40.981Z,46.53
2017-09-28T01:56:14.661Z,48.00
2017-09-28T01:58:48.541Z,51.23
2017-09-28T02:01:22.306Z,56.90
2017-09-28T02:03:56.146Z,50.40
2017-09-28T02:06:29.885Z,55.03
2017-09-28T02:09:04.531Z,50.13
2017-09-28T02:11:38.878Z,49.63
2017-09-28T02:14:12.516Z,57.40
2017-09-28T02:16:46.524Z,47.13
2017-09-28T02:19:20.232Z,49.60
2017-09-28T02:21:54.775Z,46.87
2017-09-28T02:24:28.466Z,59.30
2017-09-28T02:27:02.319Z,48.83
2017-09-28T02:29:36.807Z,50.80
2017-09-28T02:32:10.492Z,49.23
2017-09-28T02:34:45.150Z,47.27
2017-09-28T02:37:18.804Z,57.73
2017-09-28T02:39:52.804Z,43.30
2017-09-28T02:42:26.535Z,42.13
2017-09-28T02:45:00.314Z,46.33
2017-09-28T02:47:34.880Z,51.43
2017-09-28T02:50:08.745Z,52.27
2017-09-28T02:52:42.439Z,46.43
2017-09-28T02:55:16.196Z,45.67
2017-09-28T02:57:49.915Z,57.27
2017-09-28T03:00:23.733Z,41.27
2017-09-28T03:02:58.322Z,44.57
2017-09-28T03:05:32.127Z,45.40
2017-09-28T03:08:06.516Z,45.20
2017-09-28T03:10:40.383Z,40.10
2017-09-28T03:13:14.110Z,42.20
2017-09-28T03:15:48.586Z,41.67
2017-09-28T03:18:22.548Z,51.97
2017-09-28T03:20:56.294Z,37.50
2017-09-28T03:23:30.005Z,41.63
2017-09-28T03:26:03.937Z,38.83
2017-09-28T03:28:37.740Z,39.47
2017-09-28T03:31:12.453Z,39.33
2017-09-28T03:33:46.272Z,41.27
2017-09-28T03:36:20.659Z,45.80
2017-09-28T03:38:54.460Z,40.90
2017-09-28T03:41:29.112Z,42.47
2017-09-28T03:44:03.513Z,40.77
2017-09-28T03:46:38.044Z,50.30
2017-09-28T03:49:12.675Z,48.37
2017-09-28T03:51:47.005Z,44.53
2017-09-28T03:54:20.808Z,41.00
2017-09-28T03:56:55.535Z,38.30
2017-09-28T03:59:29.357Z,40.20
2017-09-28T04:02:04.232Z,41.10
2017-09-28T04:04:37.875Z,40.70
2017-09-28T04:07:11.640Z,45.43
2017-09-28T04:09:45.413Z,42.00
2017-09-28T04:12:19.137Z,46.40
2017-09-28T04:14:53.614Z,37.60
2017-09-28T04:17:27.341Z,44.00
2017-09-28T04:20:01.136Z,41.27
2017-09-28T04:22:34.932Z,37.27
2017-09-28T04:25:08.749Z,41.00
2017-09-28T04:27:42.593Z,40.53
2017-09-28T04:30:16.352Z,37.40
2017-09-28T04:32:51.269Z,38.53
2017-09-28T04:35:25.781Z,42.03
2017-09-28T04:37:59.673Z,40.60
2017-09-28T04:40:33.589Z,38.50
2017-09-28T04:43:08.244Z,37.67
2017-09-28T04:45:42.017Z,38.30
2017-09-28T04:48:15.777Z,41.97
2017-09-28T04:50:49.526Z,37.00
2017-09-28T04:53:23.252Z,36.23
2017-09-28T04:55:56.935Z,37.50
2017-09-28T04:58:30.827Z,37.93
2017-09-28T05:01:04.585Z,36.57
2017-09-28T05:03:38.417Z,38.70
2017-09-28T05:06:12.260Z,36.50
2017-09-28T05:08:46.045Z,38.47
2017-09-28T05:11:19.824Z,44.97
2017-09-28T05:13:55.077Z,37.97
2017-09-28T05:16:29.012Z,36.33
2017-09-28T05:19:02.858Z,36.30
2017-09-28T05:21:36.691Z,42.67
2017-09-28T05:24:10.409Z,41.10
2017-09-28T05:26:44.204Z,42.70
2017-09-28T05:29:18.027Z,35.10
2017-09-28T05:31:52.508Z,41.33
2017-09-28T05:34:26.333Z,41.20
2017-09-28T05:37:00.732Z,41.77
2017-09-28T05:39:34.471Z,43.67
2017-09-28T05:42:08.292Z,42.23
2017-09-28T05:44:41.991Z,42.90
2017-09-28T05:47:15.780Z,53.33
2017-09-28T05:49:49.664Z,50.57
2017-09-28T05:52:23.388Z,52.77
2017-09-28T05:54:57.193Z,53.50
2017-09-28T05:57:31.705Z,53.27
2017-09-28T06:00:05.535Z,67.30
2017-09-28T06:02:39.346Z,62.00
2017-09-28T06:05:13.232Z,69.33
2017-09-28T06:07:47.137Z,63.27
2017-09-28T06:10:21.216Z,57.97
2017-09-28T06:12:55.752Z,73.60
2017-09-28T06:15:29.495Z,70.23
2017-09-28T06:18:04.104Z,76.70
2017-09-28T06:20:38.512Z,75.70
2017-09-28T06:23:12.915Z,78.23
2017-09-28T06:25:46.772Z,61.63
2017-09-28T06:28:20.464Z,61.17
2017-09-28T06:30:54.322Z,74.80
2017-09-28T06:33:28.957Z,74.97
2017-09-28T06:36:02.792Z,84.37
2017-09-28T06:38:36.581Z,83.57
2017-09-28T06:41:11.241Z,81.27
2017-09-28T06:43:45.930Z,88.17
2017-09-28T06:46:19.716Z,88.33
2017-09-28T06:48:54.623Z,79.43
2017-09-28T06:51:28.533Z,98.37
2017-09-28T06:54:03.087Z,83.77
2017-09-28T06:56:36.785Z,85.97
2017-09-28T06:59:10.514Z,87.90
2017-09-28T07:01:44.397Z,96.87
2017-09-28T07:04:18.152Z,88.27
2017-09-28T07:06:51.983Z,75.73
2017-09-28T07:09:25.748Z,82.93
2017-09-28T07:11:59.540Z,85.80
2017-09-28T07:14:33.450Z,84.90
2017-09-28T07:17:07.902Z,80.83
2017-09-28T07:19:41.701Z,88.67
2017-09-28T07:22:15.443Z,84.33
2017-09-28T07:24:49.921Z,85.43
2017-09-28T07:27:24.348Z,83.80
2017-09-28T07:29:59.003Z,84.27
2017-09-28T07:32:33.601Z,87.27
2017-09-28T07:35:08.091Z,84.40
2017-09-28T07:37:43.702Z,85.20
2017-09-28T07:40:17.405Z,85.13
2017-09-28T07:42:51.342Z,80.83
2017-09-28T07:45:25.881Z,92.00
2017-09-28T07:48:00.926Z,89.50
2017-09-28T07:50:34.742Z,89.13
2017-09-28T07:53:08.566Z,101.73
2017-09-28T07:55:43.079Z,100.90
2017-09-28T07:58:17.592Z,91.40
2017-09-28T08:00:51.363Z,103.97
2017-09-28T08:03:25.244Z,103.50
2017-09-28T08:05:59.803Z,103.00
2017-09-28T08:08:33.573Z,114.40
2017-09-28T08:11:07.305Z,105.67
2017-09-28T08:13:42.006Z,110.67
2017-09-28T08:16:15.803Z,103.60
2017-09-28T08:18:50.071Z,102.53
2017-09-28T08:21:24.745Z,99.50
2017-09-28T08:23:58.515Z,99.77
2017-09-28T08:26:32.329Z,107.80
2017-09-28T08:29:06.072Z,99.70
2017-09-28T08:31:40.756Z,99.63
2017-09-28T08:34:14.420Z,104.03
2017-09-28T08:36:48.961Z,97.60
2017-09-28T08:39:22.787Z,92.60
2017-09-28T08:41:56.718Z,96.27
2017-09-28T08:44:31.251Z,97.43
2017-09-28T08:47:05.844Z,96.90
2017-09-28T08:49:40.328Z,95.07
2017-09-28T08:52:14.481Z,93.17
2017-09-28T08:54:48.153Z,83.80
2017-09-28T08:57:21.913Z,86.33
2017-09-28T08:59:55.704Z,91.97
2017-09-28T09:02:30.228Z,94.97
2017-09-28T09:05:04.024Z,100.20
2017-09-28T09:07:37.977Z,89.27
2017-09-28T09:10:11.757Z,89.47
2017-09-28T09:12:45.610Z,91.60
2017-09-28T09:15:19.322Z,97.57
2017-09-28T09:17:55.517Z,105.07
2017-09-28T09:20:29.293Z,98.33
2017-09-28T09:23:03.045Z,95.57
2017-09-28T09:25:36.937Z,83.83
2017-09-28T09:28:10.776Z,84.40
2017-09-28T09:30:44.513Z,83.67
2017-09-28T09:33:18.481Z,90.10
2017-09-28T09:35:53.046Z,86.13
2017-09-28T09:38:26.817Z,81.70
2017-09-28T09:41:00.497Z,82.37
2017-09-28T09:43:34.334Z,95.87
2017-09-28T09:46:08.058Z,86.50
2017-09-28T09:48:41.958Z,77.40
2017-09-28T09:51:15.701Z,77.80
2017-09-28T09:53:49.928Z,77.27
2017-09-28T09:56:23.576Z,86.10
2017-09-28T09:58:58.041Z,83.70
2017-09-28T10:01:33.359Z,78.03
2017-09-28T10:04:07.205Z,75.60
2017-09-28T10:06:57.160Z,81.53
2017-09-28T10:09:32.482Z,79.00
2017-09-28T10:12:07.542Z,72.43
2017-09-28T10:14:43.991Z,79.77
2017-09-28T10:17:17.750Z,77.13
2017-09-28T10:19:51.529Z,81.87
2017-09-28T10:22:25.325Z,82.13
2017-09-28T10:24:59.035Z,93.07
2017-09-28T10:27:32.857Z,81.90
2017-09-28T10:30:07.355Z,85.60
2017-09-28T10:32:41.150Z,83.07
2017-09-28T10:35:14.966Z,81.10
2017-09-28T10:37:50.391Z,85.63
2017-09-28T10:40:24.121Z,90.27
2017-09-28T10:42:57.998Z,84.20
2017-09-28T10:45:31.838Z,74.43
2017-09-28T10:48:05.640Z,78.83
2017-09-28T10:50:39.488Z,72.67
2017-09-28T10:53:13.224Z,69.53
2017-09-28T10:55:47.201Z,71.97
2017-09-28T10:58:21.093Z,78.67
2017-09-28T11:00:54.858Z,74.87
2017-09-28T11:03:28.710Z,69.20
2017-09-28T11:06:02.521Z,76.47
2017-09-28T11:08:36.206Z,74.37
2017-09-28T11:11:10.135Z,74.43
2017-09-28T11:13:43.893Z,68.63
2017-09-28T11:16:18.505Z,69.33
2017-09-28T11:18:53.064Z,70.00
2017-09-28T11:21:26.760Z,70.63
2017-09-28T11:24:00.595Z,72.57
2017-09-28T11:26:35.197Z,69.47
2017-09-28T11:29:09.859Z,68.87
2017-09-28T11:31:44.453Z,63.53
2017-09-28T11:34:18.701Z,71.33
2017-09-28T11:36:52.601Z,63.37
2017-09-28T11:39:26.390Z,63.40
2017-09-28T11:42:00.112Z,66.97
2017-09-28T11:44:34.718Z,66.53
2017-09-28T11:47:08.561Z,66.30
2017-09-28T11:49:42.429Z,73.17
2017-09-28T11:52:16.260Z,68.73
2017-09-28T11:54:50.846Z,69.27
2017-09-28T11:57:24.585Z,67.60
2017-09-28T11:59:58.343Z,72.50
2017-09-28T12:02:32.141Z,67.13
2017-09-28T12:05:05.976Z,65.50
2017-09-28T12:07:39.772Z,74.27
2017-09-28T12:10:13.569Z,65.83
2017-09-28T12:12:48.105Z,65.27
2017-09-28T12:15:22.032Z,60.20
2017-09-28T12:17:55.815Z,69.57
2017-09-28T12:20:29.629Z,71.87
2017-09-28T12:23:03.464Z,61.77
2017-09-28T12:25:37.250Z,59.23
2017-09-28T12:28:11.079Z,62.67
2017-09-28T12:30:45.647Z,64.93
2017-09-28T12:33:19.541Z,63.97
2017-09-28T12:35:53.322Z,65.20
2017-09-28T12:38:27.015Z,64.00
2017-09-28T12:41:00.866Z,62.67
2017-09-28T12:43:34.736Z,62.90
2017-09-28T12:46:09.191Z,63.73
2017-09-28T12:48:43.751Z,60.30
2017-09-28T12:51:17.681Z,57.43
2017-09-28T12:53:52.172Z,58.13
2017-09-28T12:56:25.953Z,65.43
2017-09-28T12:58:59.829Z,67.53
2017-09-28T13:01:33.609Z,59.43
2017-09-28T13:04:07.430Z,62.97
2017-09-28T13:06:42.002Z,58.37
2017-09-28T13:09:15.869Z,58.00
2017-09-28T13:11:49.663Z,62.40
2017-09-28T13:14:23.435Z,58.10
2017-09-28T13:16:58.050Z,63.97
2017-09-28T13:19:31.784Z,60.00
2017-09-28T13:22:05.615Z,56.60
2017-09-28T13:24:39.434Z,61.40
2017-09-28T13:27:13.307Z,59.57
2017-09-28T13:29:47.168Z,58.33
2017-09-28T13:32:21.021Z,69.27
2017-09-28T13:34:55.522Z,60.10
2017-09-28T13:37:29.436Z,54.10
2017-09-28T13:40:04.066Z,60.30
2017-09-28T13:42:38.674Z,58.50
2017-09-28T13:45:12.546Z,51.33
2017-09-28T13:47:46.307Z,54.30
2017-09-28T13:50:20.093Z,58.90
2017-09-28T13:52:53.841Z,56.07
2017-09-28T13:55:27.557Z,57.03
2017-09-28T13:58:01.358Z,57.67
2017-09-28T14:00:35.944Z,60.73
2017-09-28T14:03:09.925Z,54.97
2017-09-28T14:05:43.760Z,64.90
2017-09-28T14:08:17.537Z,58.60
2017-09-28T14:10:51.467Z,56.93
2017-09-28T14:13:25.314Z,58.00
2017-09-28T14:15:59.126Z,56.20
2017-09-28T14:18:32.895Z,56.43
2017-09-28T14:21:07.629Z,57.80
2017-09-28T14:23:41.405Z,60.77
2017-09-28T14:26:15.275Z,57.23
2017-09-28T14:28:49.018Z,53.73
2017-09-28T14:31:22.786Z,62.23
2017-09-28T14:33:56.533Z,61.40
2017-09-28T14:36:30.297Z,57.23
2017-09-28T14:39:04.078Z,54.33
2017-09-28T14:41:37.799Z,58.73
2017-09-28T14:44:11.568Z,63.37
2017-09-28T14:46:46.110Z,57.50
2017-09-28T14:49:19.992Z,57.00
2017-09-28T14:51:53.862Z,58.30
2017-09-28T14:54:27.621Z,61.97
2017-09-28T14:57:02.628Z,62.43
2017-09-28T14:59:36.520Z,61.80
2017-09-28T15:02:10.331Z,60.67
2017-09-28T15:04:46.749Z,70.43
2017-09-28T15:07:20.408Z,63.70
2017-09-28T15:09:54.115Z,68.73
2017-09-28T15:12:28.022Z,63.77
2017-09-28T15:15:01.756Z,60.40
2017-09-28T15:17:35.634Z,63.73
2017-09-28T15:20:09.362Z,65.90
2017-09-28T15:22:43.225Z,67.63
2017-09-28T15:25:17.787Z,66.83
2017-09-28T15:27:51.653Z,77.80
2017-09-28T15:30:25.439Z,74.10
2017-09-28T15:32:59.325Z,72.07
2017-09-28T15:35:32.919Z,80.47
2017-09-28T15:38:07.621Z,75.30
2017-09-28T15:40:41.365Z,78.00
2017-09-28T15:43:15.180Z,78.10
2017-09-28T15:45:48.993Z,80.90
2017-09-28T15:48:22.838Z,76.87
2017-09-28T15:50:56.713Z,75.57
2017-09-28T15:53:30.757Z,87.03
2017-09-28T15:56:04.706Z,83.90
2017-09-28T15:58:38.527Z,81.27
2017-09-28T16:01:12.325Z,79.47
2017-09-28T16:03:46.290Z,84.47
2017-09-28T16:06:20.053Z,80.13
2017-09-28T16:08:53.682Z,81.90
2017-09-28T16:11:27.481Z,83.00
2017-09-28T16:14:02.166Z,80.00
2017-09-28T16:16:36.216Z,74.57
2017-09-28T16:19:10.089Z,87.20
2017-09-28T16:21:43.820Z,82.47
2017-09-28T16:24:18.496Z,82.60
2017-09-28T16:26:53.070Z,80.90
2017-09-28T16:29:26.867Z,83.47
2017-09-28T16:32:01.575Z,83.17
2017-09-28T16:34:35.346Z,94.67
2017-09-28T16:37:09.108Z,85.17
2017-09-28T16:39:43.734Z,93.93
2017-09-28T16:42:17.721Z,72.33
2017-09-28T16:44:52.265Z,73.23
2017-09-28T16:47:26.037Z,82.90
2017-09-28T16:49:59.888Z,82.43
2017-09-28T16:52:33.681Z,72.60
2017-09-28T16:55:08.371Z,76.23
2017-09-28T16:57:42.035Z,75.97
2017-09-28T17:00:15.854Z,83.93
2017-09-28T17:02:49.640Z,89.90
2017-09-28T17:05:23.457Z,83.73
2017-09-28T17:07:57.222Z,91.20
2017-09-28T17:10:31.929Z,90.87
2017-09-28T17:13:06.366Z,88.00
2017-09-28T17:15:41.020Z,89.20
2017-09-28T17:18:15.637Z,92.07
2017-09-28T17:20:50.265Z,95.07
2017-09-28T17:23:23.993Z,84.90
2017-09-28T17:25:57.806Z,81.97
2017-09-28T17:28:32.372Z,94.27
2017-09-28T17:31:06.115Z,80.97
2017-09-28T17:33:39.934Z,75.50
2017-09-28T17:36:13.752Z,79.87
2017-09-28T17:38:47.533Z,81.20
2017-09-28T17:41:21.426Z,81.37
2017-09-28T17:43:55.032Z,80.40
2017-09-28T17:46:28.890Z,87.80
2017-09-28T17:49:02.554Z,88.20
2017-09-28T17:51:36.362Z,82.87
2017-09-28T17:54:10.128Z,79.60
2017-09-28T17:56:44.239Z,77.37
2017-09-28T17:59:18.666Z,76.80
2017-09-28T18:01:52.887Z,70.77
2017-09-28T18:04:27.519Z,69.27
2017-09-28T18:07:01.554Z,76.90
2017-09-28T18:09:35.438Z,65.80
2017-09-28T18:12:10.672Z,68.23
2017-09-28T18:14:44.612Z,63.97
2017-09-28T18:17:18.497Z,68.27
2017-09-28T18:19:52.293Z,67.60
2017-09-28T18:22:26.836Z,67.93
2017-09-28T18:25:01.437Z,57.27
2017-09-28T18:27:36.098Z,66.40
2017-09-28T18:30:09.913Z,64.77
2017-09-28T18:32:43.741Z,69.17
2017-09-28T18:35:17.721Z,70.03
2017-09-28T18:37:51.500Z,64.90
2017-09-28T18:40:25.177Z,75.87
2017-09-28T18:42:59.008Z,64.07
2017-09-28T18:45:32.908Z,73.70
2017-09-28T18:48:06.942Z,70.67
2017-09-28T18:50:40.751Z,79.00
2017-09-28T18:53:14.642Z,237.93
2017-09-28T18:55:49.166Z,76.93
2017-09-28T18:58:22.993Z,73.83
2017-09-28T19:00:56.673Z,77.17
2017-09-28T19:03:30.532Z,67.07
2017-09-28T19:06:04.445Z,84.20
2017-09-28T19:08:38.407Z,75.83
2017-09-28T19:11:12.182Z,83.17
2017-09-28T19:13:46.763Z,85.50
2017-09-28T19:16:20.561Z,473.10
2017-09-28T19:18:54.368Z,457.80
2017-09-28T19:21:28.958Z,418.03
2017-09-28T19:24:02.813Z,183.07
2017-09-28T19:26:36.563Z,107.43
2017-09-28T19:29:10.358Z,90.87
2017-09-28T19:31:44.102Z,86.73
2017-09-28T19:34:19.146Z,76.83
2017-09-28T19:36:52.849Z,75.50
2017-09-28T19:39:26.667Z,73.10
2017-09-28T19:42:01.180Z,72.77
2017-09-28T19:44:34.964Z,72.27
2017-09-28T19:47:08.738Z,67.13
2017-09-28T19:49:42.507Z,68.73
2017-09-28T19:52:17.091Z,81.57
2017-09-28T19:54:51.645Z,68.93
2017-09-28T19:57:25.599Z,64.90
2017-09-28T19:59:59.370Z,59.87
2017-09-28T20:02:33.061Z,57.87
2017-09-28T20:05:06.835Z,58.03
2017-09-28T20:07:40.664Z,62.30
2017-09-28T20:10:15.198Z,58.83
2017-09-28T20:12:49.789Z,69.00
2017-09-28T20:15:23.565Z,66.17
2017-09-28T20:17:57.506Z,75.27
2017-09-28T20:20:31.320Z,71.80
2017-09-28T20:23:05.171Z,65.03
2017-09-28T20:25:39.124Z,75.70
2017-09-28T20:28:12.966Z,64.27
2017-09-28T20:30:48.576Z,58.07
2017-09-28T20:33:22.996Z,66.40
2017-09-28T20:35:56.755Z,62.33
2017-09-28T20:38:30.653Z,66.83
2017-09-28T20:41:05.271Z,64.00
2017-09-28T20:43:39.085Z,63.47
2017-09-28T20:46:13.606Z,55.90
2017-09-28T20:48:47.295Z,54.33
2017-09-28T20:51:21.325Z,62.13
2017-09-28T20:53:55.130Z,57.33
2017-09-28T20:56:29.745Z,67.53
2017-09-28T20:59:03.509Z,58.53
2017-09-28T21:01:37.230Z,60.00
2017-09-28T21:04:11.851Z,52.00
2017-09-28T21:06:45.718Z,57.07
2017-09-28T21:09:19.474Z,61.90
2017-09-28T21:11:53.232Z,54.87
2017-09-28T21:14:26.994Z,52.43
2017-09-28T21:17:00.841Z,59.30
2017-09-28T21:19:34.505Z,62.80
2017-09-28T21:22:08.321Z,60.90
2017-09-28T21:24:42.115Z,73.77
2017-09-28T21:27:15.858Z,59.37
2017-09-28T21:29:50.444Z,58.50
2017-09-28T21:32:24.238Z,68.00
2017-09-28T21:34:58.001Z,61.87
2017-09-28T21:37:32.545Z,67.20
2017-09-28T21:40:07.558Z,68.90
2017-09-28T21:42:41.417Z,59.73
2017-09-28T21:45:15.101Z,59.93
2017-09-28T21:47:48.962Z,56.37
2017-09-28T21:50:22.836Z,69.47
2017-09-28T21:52:56.619Z,58.50
2017-09-28T21:55:30.356Z,77.03
2017-09-28T21:58:04.405Z,61.20
2017-09-28T22:00:38.248Z,56.37
2017-09-28T22:03:12.792Z,54.43
2017-09-28T22:05:46.583Z,55.97
2017-09-28T22:08:20.296Z,45.83
2017-09-28T22:10:54.212Z,62.27
2017-09-28T22:13:28.816Z,66.03
2017-09-28T22:16:03.854Z,58.77
2017-09-28T22:18:37.455Z,70.80
2017-09-28T22:21:11.284Z,64.60
2017-09-28T22:23:45.824Z,68.60
2017-09-28T22:26:19.726Z,56.47
2017-09-28T22:28:54.376Z,62.47
2017-09-28T22:31:28.238Z,64.27
2017-09-28T22:34:02.896Z,63.50
2017-09-28T22:36:37.368Z,64.00
2017-09-28T22:39:11.236Z,70.30
2017-09-28T22:41:44.997Z,64.07
2017-09-28T22:44:18.878Z,67.83
2017-09-28T22:46:52.607Z,68.90
2017-09-28T22:49:27.112Z,71.33
2017-09-28T22:52:01.686Z,64.53
2017-09-28T22:54:35.541Z,62.63
2017-09-28T22:57:09.332Z,66.83
2017-09-28T22:59:43.172Z,70.83
2017-09-28T23:02:17.041Z,69.60
2017-09-28T23:04:50.878Z,64.90
2017-09-28T23:07:24.640Z,68.50
2017-09-28T23:09:58.534Z,79.47
2017-09-28T23:12:32.357Z,76.13
2017-09-28T23:15:06.141Z,74.07
2017-09-28T23:17:39.937Z,76.67
2017-09-28T23:20:14.557Z,76.00
2017-09-28T23:22:48.310Z,77.47
2017-09-28T23:25:22.198Z,74.40
2017-09-28T23:27:56.009Z,69.73
2017-09-28T23:30:30.576Z,71.27
2017-09-28T23:33:04.342Z,79.90
2017-09-28T23:35:38.802Z,73.57
2017-09-28T23:38:12.672Z,78.57
2017-09-28T23:40:46.549Z,69.07
2017-09-28T23:43:20.380Z,73.23
2017-09-28T23:45:54.856Z,78.63
2017-09-28T23:48:28.645Z,75.97
2017-09-28T23:51:02.362Z,79.00
2017-09-28T23:53:36.322Z,75.27
2017-09-28T23:56:09.990Z,76.10
2017-09-28T23:58:44.521Z,71.57
